sensor_id;sensor_type;location;lat;lon;timestamp;pressure;altitude;pressure_sealevel;temperature;humidity
79481;BME280;68944;48.262;14.208;2023-07-20T00:00:48;97923.03;;;23.21;56.62
79481;BME280;68944;48.262;14.208;2023-07-20T00:03:15;97923.66;;;23.17;56.58
79481;BME280;68944;48.262;14.208;2023-07-20T00:05:47;97908.88;;;23.15;56.91
79481;BME280;68944;48.262;14.208;2023-07-20T00:08:12;97908.25;;;23.18;56.66
79481;BME280;68944;48.262;14.208;2023-07-20T00:10:38;97923.50;;;23.14;56.87
79481;BME280;68944;48.262;14.208;2023-07-20T00:13:03;97937.50;;;23.16;56.88
79481;BME280;68944;48.262;14.208;2023-07-20T00:15:29;97946.97;;;23.04;57.28
79481;BME280;68944;48.262;14.208;2023-07-20T00:20:29;97948.94;;;22.81;57.41
79481;BME280;68944;48.262;14.208;2023-07-20T00:22:55;97939.19;;;22.71;57.52
79481;BME280;68944;48.262;14.208;2023-07-20T00:25:23;97945.69;;;22.70;57.88
79481;BME280;68944;48.262;14.208;2023-07-20T00:27:48;97936.19;;;22.72;57.97
79481;BME280;68944;48.262;14.208;2023-07-20T00:30:14;97958.59;;;22.73;58.56
79481;BME280;68944;48.262;14.208;2023-07-20T00:32:39;97974.66;;;22.78;58.46
79481;BME280;68944;48.262;14.208;2023-07-20T00:35:05;97978.09;;;22.70;58.01
79481;BME280;68944;48.262;14.208;2023-07-20T00:37:31;97976.50;;;22.69;58.08
79481;BME280;68944;48.262;14.208;2023-07-20T00:39:56;97945.22;;;22.68;57.96
79481;BME280;68944;48.262;14.208;2023-07-20T00:42:22;97928.13;;;22.81;58.33
79481;BME280;68944;48.262;14.208;2023-07-20T00:44:47;97925.16;;;22.92;59.28
79481;BME280;68944;48.262;14.208;2023-07-20T00:47:13;97954.25;;;22.95;58.42
79481;BME280;68944;48.262;14.208;2023-07-20T00:49:39;97951.69;;;22.90;58.46
79481;BME280;68944;48.262;14.208;2023-07-20T00:52:06;97955.28;;;22.76;59.34
79481;BME280;68944;48.262;14.208;2023-07-20T00:54:33;97947.09;;;22.67;59.43
79481;BME280;68944;48.262;14.208;2023-07-20T00:57:00;97941.03;;;22.61;59.79
79481;BME280;68944;48.262;14.208;2023-07-20T00:59:26;97935.75;;;22.56;59.69
79481;BME280;68944;48.262;14.208;2023-07-20T01:01:52;97943.19;;;22.50;60.02
79481;BME280;68944;48.262;14.208;2023-07-20T01:04:18;97944.13;;;22.46;59.97
79481;BME280;68944;48.262;14.208;2023-07-20T01:06:49;97943.63;;;22.44;60.40
79481;BME280;68944;48.262;14.208;2023-07-20T01:12:02;97941.78;;;22.53;60.02
79481;BME280;68944;48.262;14.208;2023-07-20T01:14:31;97929.31;;;22.66;59.84
79481;BME280;68944;48.262;14.208;2023-07-20T01:16:57;97939.72;;;22.82;59.64
79481;BME280;68944;48.262;14.208;2023-07-20T01:19:23;97948.47;;;22.79;59.19
79481;BME280;68944;48.262;14.208;2023-07-20T01:22:05;97951.81;;;22.84;58.92
79481;BME280;68944;48.262;14.208;2023-07-20T01:24:40;97958.59;;;22.73;58.77
79481;BME280;68944;48.262;14.208;2023-07-20T01:27:44;97947.03;;;22.58;58.77
79481;BME280;68944;48.262;14.208;2023-07-20T01:32:44;97964.91;;;22.45;59.29
79481;BME280;68944;48.262;14.208;2023-07-20T01:35:14;97952.22;;;22.46;59.78
79481;BME280;68944;48.262;14.208;2023-07-20T01:37:43;97949.59;;;22.32;60.23
79481;BME280;68944;48.262;14.208;2023-07-20T01:40:11;97948.78;;;22.31;60.42
79481;BME280;68944;48.262;14.208;2023-07-20T01:42:37;97958.00;;;22.30;60.57
79481;BME280;68944;48.262;14.208;2023-07-20T01:45:03;97953.44;;;22.16;61.17
79481;BME280;68944;48.262;14.208;2023-07-20T01:47:28;97952.06;;;22.05;61.48
79481;BME280;68944;48.262;14.208;2023-07-20T01:49:54;97945.47;;;22.11;61.35
79481;BME280;68944;48.262;14.208;2023-07-20T01:52:19;97952.06;;;22.05;61.56
79481;BME280;68944;48.262;14.208;2023-07-20T01:54:45;97960.84;;;22.11;61.39
79481;BME280;68944;48.262;14.208;2023-07-20T01:57:10;97954.34;;;22.12;61.28
79481;BME280;68944;48.262;14.208;2023-07-20T01:59:36;97952.72;;;22.25;61.18
79481;BME280;68944;48.262;14.208;2023-07-20T02:02:01;97955.47;;;22.11;62.11
79481;BME280;68944;48.262;14.208;2023-07-20T02:04:27;97960.03;;;21.87;62.84
79481;BME280;68944;48.262;14.208;2023-07-20T02:06:52;97962.81;;;21.82;63.34
79481;BME280;68944;48.262;14.208;2023-07-20T02:09:18;97964.63;;;21.73;63.20
79481;BME280;68944;48.262;14.208;2023-07-20T02:11:43;97958.25;;;21.68;63.46
79481;BME280;68944;48.262;14.208;2023-07-20T02:14:09;97976.09;;;21.78;63.03
79481;BME280;68944;48.262;14.208;2023-07-20T02:16:34;97968.81;;;21.93;62.70
79481;BME280;68944;48.262;14.208;2023-07-20T02:19:00;97960.47;;;22.03;62.40
79481;BME280;68944;48.262;14.208;2023-07-20T02:21:25;97968.78;;;22.07;62.37
79481;BME280;68944;48.262;14.208;2023-07-20T02:23:51;97979.91;;;22.14;62.44
79481;BME280;68944;48.262;14.208;2023-07-20T02:26:16;97976.19;;;22.24;61.65
79481;BME280;68944;48.262;14.208;2023-07-20T02:28:42;97981.16;;;22.31;61.51
79481;BME280;68944;48.262;14.208;2023-07-20T02:31:07;97973.75;;;22.37;61.10
79481;BME280;68944;48.262;14.208;2023-07-20T02:33:33;97974.19;;;22.30;60.68
79481;BME280;68944;48.262;14.208;2023-07-20T02:35:58;97979.88;;;22.28;60.56
79481;BME280;68944;48.262;14.208;2023-07-20T02:38:24;97968.03;;;22.15;60.53
79481;BME280;68944;48.262;14.208;2023-07-20T02:40:49;97976.63;;;22.17;60.51
79481;BME280;68944;48.262;14.208;2023-07-20T02:48:39;97972.34;;;22.39;60.71
79481;BME280;68944;48.262;14.208;2023-07-20T02:51:05;97974.53;;;22.37;61.16
79481;BME280;68944;48.262;14.208;2023-07-20T02:53:30;97999.72;;;22.33;61.00
79481;BME280;68944;48.262;14.208;2023-07-20T02:55:56;98000.78;;;22.23;61.51
79481;BME280;68944;48.262;14.208;2023-07-20T02:58:21;97996.59;;;22.16;61.42
79481;BME280;68944;48.262;14.208;2023-07-20T03:00:47;98002.63;;;22.13;61.72
79481;BME280;68944;48.262;14.208;2023-07-20T03:03:12;97990.22;;;22.12;61.58
79481;BME280;68944;48.262;14.208;2023-07-20T03:05:41;97996.47;;;22.22;61.53
79481;BME280;68944;48.262;14.208;2023-07-20T03:08:06;97992.59;;;22.28;61.42
79481;BME280;68944;48.262;14.208;2023-07-20T03:10:32;97989.94;;;22.37;61.17
79481;BME280;68944;48.262;14.208;2023-07-20T03:12:58;97994.34;;;22.33;61.47
79481;BME280;68944;48.262;14.208;2023-07-20T03:15:24;97989.25;;;22.31;61.64
79481;BME280;68944;48.262;14.208;2023-07-20T03:17:49;97992.38;;;22.24;61.89
79481;BME280;68944;48.262;14.208;2023-07-20T03:20:17;97997.31;;;22.08;62.44
79481;BME280;68944;48.262;14.208;2023-07-20T03:22:42;97984.50;;;21.91;62.93
79481;BME280;68944;48.262;14.208;2023-07-20T03:25:08;97978.47;;;21.94;62.91
79481;BME280;68944;48.262;14.208;2023-07-20T03:27:34;97996.66;;;22.02;62.57
79481;BME280;68944;48.262;14.208;2023-07-20T03:30:01;98002.06;;;22.02;62.68
79481;BME280;68944;48.262;14.208;2023-07-20T03:32:27;98003.44;;;22.00;62.91
79481;BME280;68944;48.262;14.208;2023-07-20T03:34:53;98011.63;;;22.09;62.52
79481;BME280;68944;48.262;14.208;2023-07-20T03:37:18;98007.53;;;22.11;62.32
79481;BME280;68944;48.262;14.208;2023-07-20T03:39:44;98004.00;;;22.11;62.27
79481;BME280;68944;48.262;14.208;2023-07-20T03:42:09;97989.13;;;22.13;62.05
79481;BME280;68944;48.262;14.208;2023-07-20T03:44:35;97999.06;;;22.27;62.01
79481;BME280;68944;48.262;14.208;2023-07-20T03:47:00;97991.81;;;22.13;62.32
79481;BME280;68944;48.262;14.208;2023-07-20T03:49:26;97978.69;;;21.98;62.56
79481;BME280;68944;48.262;14.208;2023-07-20T03:51:51;97987.06;;;21.96;62.81
79481;BME280;68944;48.262;14.208;2023-07-20T03:54:18;97984.97;;;22.07;62.20
79481;BME280;68944;48.262;14.208;2023-07-20T04:07:59;97990.06;;;22.55;61.30
79481;BME280;68944;48.262;14.208;2023-07-20T04:12:55;97994.81;;;22.72;60.53
79481;BME280;68944;48.262;14.208;2023-07-20T04:23:34;98008.59;;;22.70;60.29
79481;BME280;68944;48.262;14.208;2023-07-20T04:26:01;98014.59;;;22.67;60.58
79481;BME280;68944;48.262;14.208;2023-07-20T04:28:27;98018.59;;;22.70;60.35
79481;BME280;68944;48.262;14.208;2023-07-20T04:30:52;98017.22;;;22.58;60.57
79481;BME280;68944;48.262;14.208;2023-07-20T04:33:18;98015.75;;;22.52;60.65
79481;BME280;68944;48.262;14.208;2023-07-20T04:35:46;98034.84;;;22.56;60.76
79481;BME280;68944;48.262;14.208;2023-07-20T04:38:14;98020.59;;;22.64;61.03
79481;BME280;68944;48.262;14.208;2023-07-20T04:40:45;98015.16;;;22.78;61.03
79481;BME280;68944;48.262;14.208;2023-07-20T04:43:12;98016.63;;;22.84;60.88
79481;BME280;68944;48.262;14.208;2023-07-20T04:45:37;98023.16;;;22.83;60.91
79481;BME280;68944;48.262;14.208;2023-07-20T04:48:06;98027.31;;;22.90;61.19
79481;BME280;68944;48.262;14.208;2023-07-20T04:50:33;98022.38;;;22.92;60.79
79481;BME280;68944;48.262;14.208;2023-07-20T04:52:59;98024.16;;;22.96;60.90
79481;BME280;68944;48.262;14.208;2023-07-20T04:55:25;98017.47;;;22.94;60.35
79481;BME280;68944;48.262;14.208;2023-07-20T04:57:51;98035.28;;;22.95;60.63
79481;BME280;68944;48.262;14.208;2023-07-20T05:00:17;98030.31;;;22.88;60.65
79481;BME280;68944;48.262;14.208;2023-07-20T05:02:42;98030.72;;;22.81;60.85
79481;BME280;68944;48.262;14.208;2023-07-20T05:05:08;98029.81;;;22.86;60.57
79481;BME280;68944;48.262;14.208;2023-07-20T05:07:34;98031.31;;;22.69;60.77
79481;BME280;68944;48.262;14.208;2023-07-20T05:10:00;98031.41;;;22.64;61.52
79481;BME280;68944;48.262;14.208;2023-07-20T05:12:25;98026.81;;;22.65;61.50
79481;BME280;68944;48.262;14.208;2023-07-20T05:14:51;98026.41;;;22.71;61.12
79481;BME280;68944;48.262;14.208;2023-07-20T05:17:17;98027.06;;;22.77;61.00
79481;BME280;68944;48.262;14.208;2023-07-20T05:19:42;98030.59;;;22.87;60.73
79481;BME280;68944;48.262;14.208;2023-07-20T05:22:08;98025.66;;;22.80;60.62
79481;BME280;68944;48.262;14.208;2023-07-20T05:24:34;98019.88;;;22.72;60.41
79481;BME280;68944;48.262;14.208;2023-07-20T05:26:59;98024.84;;;22.79;60.58
79481;BME280;68944;48.262;14.208;2023-07-20T05:29:25;98029.28;;;22.75;60.51
79481;BME280;68944;48.262;14.208;2023-07-20T05:31:50;98031.81;;;22.71;60.50
79481;BME280;68944;48.262;14.208;2023-07-20T05:34:16;98035.00;;;22.73;60.90
79481;BME280;68944;48.262;14.208;2023-07-20T05:37:11;98040.13;;;22.84;60.74
79481;BME280;68944;48.262;14.208;2023-07-20T05:39:36;98039.69;;;22.91;60.74
79481;BME280;68944;48.262;14.208;2023-07-20T05:42:02;98044.91;;;22.87;60.87
79481;BME280;68944;48.262;14.208;2023-07-20T05:44:27;98048.09;;;22.89;60.97
79481;BME280;68944;48.262;14.208;2023-07-20T05:46:53;98045.59;;;22.93;61.07
79481;BME280;68944;48.262;14.208;2023-07-20T05:49:18;98041.41;;;22.87;61.02
79481;BME280;68944;48.262;14.208;2023-07-20T05:51:44;98036.31;;;22.85;61.19
79481;BME280;68944;48.262;14.208;2023-07-20T05:54:09;98046.75;;;22.78;60.92
79481;BME280;68944;48.262;14.208;2023-07-20T05:56:35;98036.19;;;22.67;60.54
79481;BME280;68944;48.262;14.208;2023-07-20T05:59:00;98050.78;;;22.66;60.68
79481;BME280;68944;48.262;14.208;2023-07-20T06:01:26;98054.28;;;22.67;60.85
79481;BME280;68944;48.262;14.208;2023-07-20T06:03:53;98052.81;;;22.60;60.88
79481;BME280;68944;48.262;14.208;2023-07-20T06:06:18;98052.59;;;22.71;60.74
79481;BME280;68944;48.262;14.208;2023-07-20T06:08:44;98056.75;;;22.77;60.63
79481;BME280;68944;48.262;14.208;2023-07-20T06:11:10;98063.88;;;22.73;60.55
79481;BME280;68944;48.262;14.208;2023-07-20T06:13:35;98059.47;;;22.77;60.30
79481;BME280;68944;48.262;14.208;2023-07-20T06:16:01;98050.78;;;22.66;59.94
79481;BME280;68944;48.262;14.208;2023-07-20T06:18:27;98068.69;;;22.76;60.27
79481;BME280;68944;48.262;14.208;2023-07-20T06:20:52;98065.06;;;22.81;60.15
79481;BME280;68944;48.262;14.208;2023-07-20T06:23:18;98064.75;;;22.82;60.07
79481;BME280;68944;48.262;14.208;2023-07-20T06:25:44;98067.50;;;22.68;60.21
79481;BME280;68944;48.262;14.208;2023-07-20T06:28:10;98063.41;;;22.71;59.79
79481;BME280;68944;48.262;14.208;2023-07-20T06:30:35;98067.91;;;22.61;59.87
79481;BME280;68944;48.262;14.208;2023-07-20T06:33:01;98070.00;;;22.65;59.56
79481;BME280;68944;48.262;14.208;2023-07-20T06:35:26;98064.44;;;22.84;59.66
79481;BME280;68944;48.262;14.208;2023-07-20T06:37:52;98074.56;;;22.78;58.82
79481;BME280;68944;48.262;14.208;2023-07-20T06:40:17;98070.41;;;22.72;59.30
79481;BME280;68944;48.262;14.208;2023-07-20T06:42:44;98064.47;;;22.70;59.46
79481;BME280;68944;48.262;14.208;2023-07-20T06:45:09;98075.84;;;22.81;59.60
79481;BME280;68944;48.262;14.208;2023-07-20T06:47:40;98073.22;;;22.90;59.19
79481;BME280;68944;48.262;14.208;2023-07-20T06:50:06;98070.44;;;23.04;59.67
79481;BME280;68944;48.262;14.208;2023-07-20T06:52:33;98080.56;;;22.98;59.32
79481;BME280;68944;48.262;14.208;2023-07-20T06:57:34;98070.13;;;23.05;58.08
79481;BME280;68944;48.262;14.208;2023-07-20T07:06:29;98031.09;;;22.89;57.15
79481;BME280;68944;48.262;14.208;2023-07-20T07:08:54;98109.16;;;23.22;56.57
79481;BME280;68944;48.262;14.208;2023-07-20T07:11:21;98085.22;;;23.06;55.19
79481;BME280;68944;48.262;14.208;2023-07-20T07:13:46;98088.47;;;23.17;55.14
79481;BME280;68944;48.262;14.208;2023-07-20T07:16:15;98088.50;;;23.26;54.64
79481;BME280;68944;48.262;14.208;2023-07-20T07:18:44;98092.06;;;23.36;54.44
79481;BME280;68944;48.262;14.208;2023-07-20T07:21:10;98083.91;;;23.27;54.01
79481;BME280;68944;48.262;14.208;2023-07-20T07:23:35;98099.06;;;23.37;53.45
79481;BME280;68944;48.262;14.208;2023-07-20T07:26:01;98081.69;;;23.29;53.26
79481;BME280;68944;48.262;14.208;2023-07-20T07:28:28;98078.81;;;23.25;53.06
79481;BME280;68944;48.262;14.208;2023-07-20T07:30:54;98081.84;;;23.33;53.81
79481;BME280;68944;48.262;14.208;2023-07-20T07:33:20;98084.19;;;23.48;53.60
79481;BME280;68944;48.262;14.208;2023-07-20T07:35:45;98076.41;;;23.56;52.93
79481;BME280;68944;48.262;14.208;2023-07-20T07:38:11;98077.53;;;23.55;53.22
79481;BME280;68944;48.262;14.208;2023-07-20T07:40:36;98083.94;;;23.68;52.64
79481;BME280;68944;48.262;14.208;2023-07-20T07:43:02;98086.97;;;23.66;52.35
79481;BME280;68944;48.262;14.208;2023-07-20T07:45:28;98089.69;;;23.75;52.27
79481;BME280;68944;48.262;14.208;2023-07-20T07:47:54;98092.28;;;23.89;52.39
79481;BME280;68944;48.262;14.208;2023-07-20T07:50:19;98089.59;;;23.98;51.46
79481;BME280;68944;48.262;14.208;2023-07-20T07:52:45;98080.84;;;24.10;51.71
79481;BME280;68944;48.262;14.208;2023-07-20T07:55:10;98089.16;;;24.23;51.77
79481;BME280;68944;48.262;14.208;2023-07-20T07:57:36;98094.06;;;24.12;51.24
79481;BME280;68944;48.262;14.208;2023-07-20T08:00:01;98089.47;;;24.12;51.53
79481;BME280;68944;48.262;14.208;2023-07-20T08:02:30;98092.81;;;24.18;51.27
79481;BME280;68944;48.262;14.208;2023-07-20T08:04:55;98087.34;;;24.00;49.80
79481;BME280;68944;48.262;14.208;2023-07-20T08:07:21;98099.28;;;23.90;49.38
79481;BME280;68944;48.262;14.208;2023-07-20T08:09:46;98107.25;;;24.04;49.94
79481;BME280;68944;48.262;14.208;2023-07-20T08:12:12;98096.47;;;24.13;49.59
79481;BME280;68944;48.262;14.208;2023-07-20T08:14:38;98101.22;;;23.98;49.05
79481;BME280;68944;48.262;14.208;2023-07-20T08:17:04;98109.19;;;24.04;49.45
79481;BME280;68944;48.262;14.208;2023-07-20T08:19:29;98114.41;;;23.91;48.55
79481;BME280;68944;48.262;14.208;2023-07-20T08:21:55;98117.22;;;23.77;47.29
79481;BME280;68944;48.262;14.208;2023-07-20T08:24:20;98120.59;;;23.83;48.01
79481;BME280;68944;48.262;14.208;2023-07-20T08:26:46;98100.03;;;23.82;47.39
79481;BME280;68944;48.262;14.208;2023-07-20T08:29:11;98121.91;;;23.94;48.74
79481;BME280;68944;48.262;14.208;2023-07-20T08:31:37;98120.47;;;23.97;48.02
79481;BME280;68944;48.262;14.208;2023-07-20T08:34:02;98121.94;;;24.12;48.25
79481;BME280;68944;48.262;14.208;2023-07-20T08:36:28;98125.56;;;24.07;47.62
79481;BME280;68944;48.262;14.208;2023-07-20T08:38:53;98126.38;;;24.08;47.80
79481;BME280;68944;48.262;14.208;2023-07-20T08:41:19;98123.53;;;24.13;47.84
79481;BME280;68944;48.262;14.208;2023-07-20T08:43:46;98125.41;;;24.04;46.27
79481;BME280;68944;48.262;14.208;2023-07-20T08:46:12;98122.09;;;24.16;46.34
79481;BME280;68944;48.262;14.208;2023-07-20T08:48:41;98115.47;;;24.31;46.88
79481;BME280;68944;48.262;14.208;2023-07-20T08:51:07;98132.50;;;24.31;46.52
79481;BME280;68944;48.262;14.208;2023-07-20T08:53:33;98120.56;;;24.32;46.35
79481;BME280;68944;48.262;14.208;2023-07-20T08:55:59;98117.56;;;24.52;46.26
79481;BME280;68944;48.262;14.208;2023-07-20T08:58:26;98122.16;;;24.42;45.70
79481;BME280;68944;48.262;14.208;2023-07-20T09:00:54;98122.63;;;24.45;45.28
79481;BME280;68944;48.262;14.208;2023-07-20T09:03:21;98125.66;;;24.43;46.08
79481;BME280;68944;48.262;14.208;2023-07-20T09:05:46;98129.63;;;24.28;45.73
79481;BME280;68944;48.262;14.208;2023-07-20T09:08:12;98120.09;;;24.39;46.50
79481;BME280;68944;48.262;14.208;2023-07-20T09:10:37;98131.56;;;24.54;46.42
79481;BME280;68944;48.262;14.208;2023-07-20T09:13:03;98131.72;;;24.58;46.40
79481;BME280;68944;48.262;14.208;2023-07-20T09:15:29;98105.28;;;24.72;46.18
79481;BME280;68944;48.262;14.208;2023-07-20T09:17:55;98127.13;;;24.76;45.03
79481;BME280;68944;48.262;14.208;2023-07-20T09:20:21;98116.91;;;24.73;45.77
79481;BME280;68944;48.262;14.208;2023-07-20T09:22:47;98120.25;;;24.78;45.58
79481;BME280;68944;48.262;14.208;2023-07-20T09:25:17;98111.63;;;24.76;45.16
79481;BME280;68944;48.262;14.208;2023-07-20T09:27:47;98116.75;;;24.87;45.46
79481;BME280;68944;48.262;14.208;2023-07-20T09:30:16;98114.69;;;25.02;44.74
79481;BME280;68944;48.262;14.208;2023-07-20T09:32:49;98102.59;;;24.99;43.94
79481;BME280;68944;48.262;14.208;2023-07-20T09:35:17;98096.66;;;24.88;43.86
79481;BME280;68944;48.262;14.208;2023-07-20T09:37:47;98118.50;;;25.09;43.73
79481;BME280;68944;48.262;14.208;2023-07-20T09:40:16;98101.59;;;25.13;44.01
79481;BME280;68944;48.262;14.208;2023-07-20T09:42:42;98097.13;;;25.17;43.14
79481;BME280;68944;48.262;14.208;2023-07-20T09:45:08;98108.56;;;25.22;43.20
79481;BME280;68944;48.262;14.208;2023-07-20T09:47:36;98101.59;;;25.13;42.95
79481;BME280;68944;48.262;14.208;2023-07-20T09:50:04;98107.31;;;25.20;43.96
79481;BME280;68944;48.262;14.208;2023-07-20T09:52:30;98104.56;;;25.29;44.22
79481;BME280;68944;48.262;14.208;2023-07-20T09:54:57;98120.69;;;25.25;44.12
79481;BME280;68944;48.262;14.208;2023-07-20T09:57:23;98112.06;;;25.23;44.15
79481;BME280;68944;48.262;14.208;2023-07-20T09:59:48;98119.06;;;25.33;43.45
79481;BME280;68944;48.262;14.208;2023-07-20T10:02:23;98115.25;;;25.25;43.93
79481;BME280;68944;48.262;14.208;2023-07-20T10:04:53;98116.16;;;25.47;43.78
79481;BME280;68944;48.262;14.208;2023-07-20T10:07:19;98109.59;;;25.48;43.10
79481;BME280;68944;48.262;14.208;2023-07-20T10:09:48;98105.56;;;25.72;43.23
79481;BME280;68944;48.262;14.208;2023-07-20T10:12:15;98111.41;;;25.83;42.47
79481;BME280;68944;48.262;14.208;2023-07-20T10:14:49;98125.06;;;25.96;41.98
79481;BME280;68944;48.262;14.208;2023-07-20T10:17:18;98119.22;;;25.85;40.59
79481;BME280;68944;48.262;14.208;2023-07-20T10:19:50;98131.19;;;25.84;40.30
79481;BME280;68944;48.262;14.208;2023-07-20T10:22:20;98111.25;;;25.79;40.19
79481;BME280;68944;48.262;14.208;2023-07-20T10:24:50;98126.28;;;26.07;41.88
79481;BME280;68944;48.262;14.208;2023-07-20T10:27:20;98127.50;;;26.19;41.06
79481;BME280;68944;48.262;14.208;2023-07-20T10:29:46;98115.25;;;26.34;41.29
79481;BME280;68944;48.262;14.208;2023-07-20T10:49:59;98119.78;;;26.51;37.96
79481;BME280;68944;48.262;14.208;2023-07-20T10:52:37;98109.75;;;26.21;36.96
79481;BME280;68944;48.262;14.208;2023-07-20T10:55:16;98105.56;;;26.02;37.81
79481;BME280;68944;48.262;14.208;2023-07-20T10:57:42;98114.09;;;26.13;38.14
79481;BME280;68944;48.262;14.208;2023-07-20T11:00:11;98111.47;;;26.26;38.14
79481;BME280;68944;48.262;14.208;2023-07-20T11:02:50;98099.16;;;26.29;37.72
79481;BME280;68944;48.262;14.208;2023-07-20T11:05:38;98109.53;;;26.57;38.17
79481;BME280;68944;48.262;14.208;2023-07-20T11:08:06;98102.75;;;26.63;37.73
79481;BME280;68944;48.262;14.208;2023-07-20T11:10:32;98108.38;;;26.58;37.69
79481;BME280;68944;48.262;14.208;2023-07-20T11:13:33;98091.00;;;26.72;37.48
79481;BME280;68944;48.262;14.208;2023-07-20T11:18:25;98098.97;;;26.77;37.09
79481;BME280;68944;48.262;14.208;2023-07-20T11:20:52;98088.50;;;26.66;35.76
79481;BME280;68944;48.262;14.208;2023-07-20T11:26:07;98059.31;;;26.42;36.21
79481;BME280;68944;48.262;14.208;2023-07-20T11:28:34;98076.25;;;26.60;36.37
79481;BME280;68944;48.262;14.208;2023-07-20T11:30:59;98088.56;;;26.79;36.93
79481;BME280;68944;48.262;14.208;2023-07-20T11:33:24;98092.63;;;26.73;36.15
79481;BME280;68944;48.262;14.208;2023-07-20T11:38:42;98090.22;;;27.05;35.58
79481;BME280;68944;48.262;14.208;2023-07-20T11:43:45;98070.03;;;27.06;36.01
79481;BME280;68944;48.262;14.208;2023-07-20T11:46:11;98074.53;;;27.36;36.89
79481;BME280;68944;48.262;14.208;2023-07-20T11:48:36;98076.59;;;27.52;35.68
79481;BME280;68944;48.262;14.208;2023-07-20T11:51:02;98074.44;;;27.45;34.91
79481;BME280;68944;48.262;14.208;2023-07-20T11:53:28;98070.09;;;27.31;34.15
79481;BME280;68944;48.262;14.208;2023-07-20T11:55:54;98065.88;;;27.09;33.47
79481;BME280;68944;48.262;14.208;2023-07-20T11:58:20;98063.03;;;27.05;34.20
79481;BME280;68944;48.262;14.208;2023-07-20T12:00:47;98046.38;;;27.07;33.65
79481;BME280;68944;48.262;14.208;2023-07-20T12:03:12;98054.69;;;27.10;34.28
79481;BME280;68944;48.262;14.208;2023-07-20T12:05:38;98057.56;;;27.26;34.98
79481;BME280;68944;48.262;14.208;2023-07-20T12:08:04;98048.91;;;27.24;33.14
79481;BME280;68944;48.262;14.208;2023-07-20T12:10:29;98061.50;;;27.29;32.51
79481;BME280;68944;48.262;14.208;2023-07-20T12:13:01;98042.38;;;27.51;32.36
79481;BME280;68944;48.262;14.208;2023-07-20T12:15:29;98064.00;;;27.72;33.49
79481;BME280;68944;48.262;14.208;2023-07-20T12:17:58;98048.59;;;27.76;31.68
79481;BME280;68944;48.262;14.208;2023-07-20T12:20:32;98039.31;;;27.65;32.55
79481;BME280;68944;48.262;14.208;2023-07-20T12:23:08;98034.69;;;27.40;32.54
79481;BME280;68944;48.262;14.208;2023-07-20T12:25:42;98035.69;;;27.35;33.19
79481;BME280;68944;48.262;14.208;2023-07-20T12:28:18;98048.34;;;27.31;32.59
79481;BME280;68944;48.262;14.208;2023-07-20T12:30:45;98040.00;;;27.24;32.47
79481;BME280;68944;48.262;14.208;2023-07-20T12:33:11;98046.81;;;27.43;32.30
79481;BME280;68944;48.262;14.208;2023-07-20T12:35:39;98029.09;;;27.36;31.58
79481;BME280;68944;48.262;14.208;2023-07-20T12:40:51;98032.84;;;27.82;32.36
79481;BME280;68944;48.262;14.208;2023-07-20T12:46:40;98026.47;;;27.90;31.85
79481;BME280;68944;48.262;14.208;2023-07-20T12:49:07;97999.16;;;27.87;31.49
79481;BME280;68944;48.262;14.208;2023-07-20T12:51:32;98018.59;;;28.14;30.84
79481;BME280;68944;48.262;14.208;2023-07-20T12:53:58;98019.78;;;28.00;31.19
79481;BME280;68944;48.262;14.208;2023-07-20T12:56:23;98014.13;;;27.93;30.84
79481;BME280;68944;48.262;14.208;2023-07-20T12:58:49;98007.13;;;27.79;30.95
79481;BME280;68944;48.262;14.208;2023-07-20T13:01:15;98004.72;;;27.65;32.02
79481;BME280;68944;48.262;14.208;2023-07-20T13:03:41;98015.28;;;27.54;31.35
79481;BME280;68944;48.262;14.208;2023-07-20T13:06:06;98005.97;;;27.55;31.52
79481;BME280;68944;48.262;14.208;2023-07-20T13:08:32;98002.56;;;27.83;30.95
79481;BME280;68944;48.262;14.208;2023-07-20T13:10:57;97998.75;;;28.13;31.12
79481;BME280;68944;48.262;14.208;2023-07-20T13:13:23;98013.63;;;28.45;31.28
79481;BME280;68944;48.262;14.208;2023-07-20T13:15:48;98000.63;;;28.25;30.21
79481;BME280;68944;48.262;14.208;2023-07-20T13:18:14;98010.56;;;28.34;29.57
79481;BME280;68944;48.262;14.208;2023-07-20T13:23:10;98000.88;;;28.20;30.38
79481;BME280;68944;48.262;14.208;2023-07-20T13:31:45;97991.38;;;28.43;30.29
79481;BME280;68944;48.262;14.208;2023-07-20T13:34:11;97988.09;;;28.66;30.65
79481;BME280;68944;48.262;14.208;2023-07-20T13:39:09;97985.56;;;29.22;29.59
79481;BME280;68944;48.262;14.208;2023-07-20T13:41:35;97985.47;;;29.34;29.55
79481;BME280;68944;48.262;14.208;2023-07-20T13:44:00;97990.72;;;29.59;28.67
79481;BME280;68944;48.262;14.208;2023-07-20T13:46:26;97990.25;;;29.73;28.18
79481;BME280;68944;48.262;14.208;2023-07-20T13:48:51;97986.03;;;29.96;28.62
79481;BME280;68944;48.262;14.208;2023-07-20T13:51:17;97983.28;;;29.76;28.39
79481;BME280;68944;48.262;14.208;2023-07-20T13:53:42;97980.19;;;29.78;28.37
79481;BME280;68944;48.262;14.208;2023-07-20T13:56:10;97969.56;;;29.56;28.15
79481;BME280;68944;48.262;14.208;2023-07-20T13:58:35;97978.22;;;29.94;28.29
79481;BME280;68944;48.262;14.208;2023-07-20T14:01:02;97980.88;;;30.10;27.67
79481;BME280;68944;48.262;14.208;2023-07-20T14:03:27;97979.16;;;29.66;27.93
79481;BME280;68944;48.262;14.208;2023-07-20T14:05:53;97976.84;;;30.04;27.46
79481;BME280;68944;48.262;14.208;2023-07-20T14:08:18;97967.84;;;30.24;27.68
79481;BME280;68944;48.262;14.208;2023-07-20T14:10:44;97978.94;;;30.31;27.21
79481;BME280;68944;48.262;14.208;2023-07-20T14:13:09;97972.59;;;30.70;26.61
79481;BME280;68944;48.262;14.208;2023-07-20T14:15:35;97975.03;;;31.22;26.14
79481;BME280;68944;48.262;14.208;2023-07-20T14:18:01;97968.69;;;31.73;25.28